Time;durP1;ratioP1;P1;durP2;ratioP2;P2;SDS_P1;SDS_P2;PMS_P1;PMS_P2;Temp;Humidity;BMP_temperature;BMP_pressure;BME280_temperature;BME280_humidity;BME280_pressure;Samples;Min_cycle;Max_cycle;Signal;HPM_P1;HPM_P2
2023/06/12 00:00:20;;;;;;;8.90;5.68;;;;;;;22.96;38.58;100320.03;4123231;28;20046;-61
2023/06/12 00:02:22;;;;;;;8.48;4.95;;;;;;;22.93;38.63;100314.88;4145431;28;20133;-61
2023/06/12 00:04:25;;;;;;;6.32;5.07;;;;;;;22.93;38.07;100317.50;4142817;28;20038;-61
2023/06/12 00:06:30;;;;;;;9.05;4.80;;;;;;;22.92;38.60;100315.78;4146995;28;20046;-61
2023/06/12 00:08:33;;;;;;;9.43;4.80;;;;;;;22.88;39.09;100319.50;4147951;28;20041;-61
2023/06/12 00:10:36;;;;;;;7.20;4.87;;;;;;;22.85;38.65;100330.19;4141189;28;20483;-61
2023/06/12 00:12:39;;;;;;;7.88;4.85;;;;;;;22.85;38.68;100316.94;4147456;28;20371;-61
2023/06/12 00:14:42;;;;;;;7.45;4.53;;;;;;;22.87;38.87;100323.06;4143095;28;20042;-61
2023/06/12 00:16:45;;;;;;;6.95;5.50;;;;;;;22.86;39.03;100329.28;4127011;28;20098;-61
2023/06/12 00:18:49;;;;;;;7.70;5.35;;;;;;;22.87;38.92;100325.72;4143897;28;20073;-61
2023/06/12 00:20:52;;;;;;;9.40;5.22;;;;;;;22.86;38.75;100326.63;4147236;28;20700;-61
2023/06/12 00:22:57;;;;;;;5.82;4.18;;;;;;;22.86;38.81;100326.63;4109697;28;20051;-61
2023/06/12 00:24:59;;;;;;;;;;;;;;;22.75;38.89;100326.19;4147502;28;20045;-61
2023/06/12 00:27:05;;;;;;;8.75;4.45;;;;;;;22.76;39.10;100330.56;4147013;28;19921;-61
2023/06/12 00:29:08;;;;;;;6.57;4.50;;;;;;;22.79;39.26;100336.63;4147109;28;20034;-61
2023/06/12 00:31:11;;;;;;;6.50;4.70;;;;;;;22.79;39.24;100335.75;4129762;28;20516;-61
2023/06/12 00:33:16;;;;;;;6.35;4.80;;;;;;;22.75;39.34;100340.31;4132579;28;20511;-61
2023/06/12 00:35:20;;;;;;;6.57;4.78;;;;;;;22.78;39.36;100334.88;4143029;28;20066;-61
2023/06/12 00:37:24;;;;;;;5.57;4.57;;;;;;;22.80;39.48;100338.34;4142986;28;20046;-61
2023/06/12 00:39:28;;;;;;;6.20;4.70;;;;;;;22.80;39.41;100334.81;4125050;28;20049;-61
2023/06/12 00:41:31;;;;;;;6.82;4.68;;;;;;;22.80;39.36;100342.78;4146244;28;20551;-61
2023/06/12 00:43:34;;;;;;;9.48;4.45;;;;;;;22.78;39.17;100340.19;4118866;28;20527;-61
2023/06/12 00:45:37;;;;;;;5.95;4.85;;;;;;;22.75;39.47;100342.06;4143929;28;20376;-61
2023/06/12 00:47:42;;;;;;;8.07;4.72;;;;;;;22.76;39.53;100336.72;4112621;28;20081;-61
2023/06/12 00:49:44;;;;;;;;;;;;;;;22.61;39.53;100342.63;4129534;28;20093;-61
2023/06/12 00:51:48;;;;;;;7.03;4.30;;;;;;;22.60;39.55;100336.44;4128376;28;19930;-61
2023/06/12 00:53:53;;;;;;;7.07;4.63;;;;;;;22.61;39.38;100338.16;4124237;28;20065;-61
2023/06/12 00:55:57;;;;;;;6.55;4.20;;;;;;;22.60;39.66;100341.72;4128599;28;20488;-61
2023/06/12 00:58:02;;;;;;;7.38;4.45;;;;;;;22.58;39.66;100345.38;4125943;28;20042;-61
2023/06/12 01:00:07;;;;;;;8.27;4.47;;;;;;;22.53;39.87;100350.88;4127449;28;20566;-61
2023/06/12 01:02:13;;;;;;;5.28;4.00;;;;;;;22.49;39.73;100344.78;4144216;28;20040;-61
2023/06/12 01:04:16;;;;;;;5.15;4.00;;;;;;;22.45;39.65;100340.53;4139819;28;20562;-61
2023/06/12 01:06:29;;;;;;;7.93;5.07;;;;;;;22.44;39.71;100345.88;4125304;28;20038;-61
2023/06/12 01:08:38;;;;;;;8.25;4.30;;;;;;;22.42;39.78;100348.59;4141866;28;20034;-61
2023/06/12 01:10:45;;;;;;;8.30;4.00;;;;;;;22.42;39.81;100350.38;4124384;28;20476;-61
2023/06/12 01:12:52;;;;;;;4.40;3.80;;;;;;;22.38;40.29;100346.97;4141349;28;20064;-61
2023/06/12 01:14:55;;;;;;;5.63;4.22;;;;;;;22.37;40.36;100347.91;4123727;28;20531;-61
2023/06/12 01:17:02;;;;;;;8.32;4.47;;;;;;;22.33;40.50;100348.94;4125792;28;20072;-61
2023/06/12 01:19:06;;;;;;;6.43;4.38;;;;;;;22.30;40.34;100356.97;4124376;28;20042;-61
2023/06/12 01:21:17;;;;;;;8.13;4.18;;;;;;;22.36;40.39;100350.63;4128184;28;20041;-61
2023/06/12 01:23:45;;;;;;;7.43;4.80;;;;;;;22.26;40.56;100358.84;4144969;28;20053;-61
2023/06/12 01:26:08;;;;;;;5.47;4.63;;;;;;;22.18;40.69;100363.56;4144010;28;20128;-61
2023/06/12 01:28:29;;;;;;;7.00;4.30;;;;;;;22.06;41.09;100366.63;4141475;28;20038;-61
2023/06/12 01:30:58;;;;;;;10.32;5.10;;;;;;;22.02;41.34;100365.00;4127324;28;20080;-61
2023/06/12 01:33:07;;;;;;;7.38;4.93;;;;;;;22.00;41.44;100366.84;4124996;28;20076;-61
2023/06/12 01:35:16;;;;;;;5.80;4.45;;;;;;;22.02;41.62;100367.66;4142211;28;20113;-61
2023/06/12 01:37:31;;;;;;;6.53;4.50;;;;;;;22.05;41.75;100368.44;4144858;28;20041;-61
2023/06/12 01:39:39;;;;;;;13.35;4.78;;;;;;;22.03;41.78;100361.44;4120575;28;20053;-60
2023/06/12 01:41:44;;;;;;;6.95;4.85;;;;;;;22.03;41.93;100361.44;4123834;28;20042;-60
2023/06/12 01:43:48;;;;;;;6.97;4.90;;;;;;;22.04;42.10;100371.13;4140548;28;20735;-61
2023/06/12 01:45:51;;;;;;;6.53;4.55;;;;;;;22.02;42.11;100365.00;4126354;28;20042;-61
2023/06/12 01:47:54;;;;;;;6.20;4.60;;;;;;;22.00;42.11;100359.78;4124280;28;20125;-61
2023/06/12 01:50:01;;;;;;;6.38;4.65;;;;;;;22.00;42.49;100358.91;4127960;28;20049;-61
2023/06/12 01:52:06;;;;;;;7.30;4.53;;;;;;;21.95;42.56;100365.22;4126288;28;20058;-60
2023/06/12 01:54:08;;;;;;;8.55;4.50;;;;;;;21.86;43.17;100365.56;4128226;28;20043;-61
2023/06/12 01:56:14;;;;;;;7.13;4.50;;;;;;;21.84;43.61;100371.81;4128544;28;20085;-61
2023/06/12 01:58:17;;;;;;;6.70;4.25;;;;;;;21.76;43.72;100364.13;4144780;28;20132;-60
2023/06/12 02:00:39;;;;;;;6.07;4.93;;;;;;;21.64;44.07;100361.88;4143949;28;20056;-61
2023/06/12 02:02:42;;;;;;;8.43;4.95;;;;;;;21.67;43.83;100361.78;4128739;28;20046;-60
2023/06/12 02:04:45;;;;;;;10.93;5.63;;;;;;;21.58;44.31;100363.84;4124662;28;20042;-61
2023/06/12 02:06:49;;;;;;;8.55;5.43;;;;;;;21.57;44.40;100359.47;4128581;28;20034;-61
2023/06/12 02:08:53;;;;;;;10.02;5.65;;;;;;;21.54;44.49;100359.56;4128252;28;20183;-61
2023/06/12 02:10:56;;;;;;;7.53;5.28;;;;;;;21.53;44.97;100368.41;4141305;28;20479;-61
2023/06/12 02:12:59;;;;;;;9.48;6.07;;;;;;;21.51;44.91;100370.25;4127808;28;20030;-60
2023/06/12 02:15:04;;;;;;;10.00;6.03;;;;;;;21.50;45.09;100372.91;4127754;28;20093;-58
2023/06/12 02:17:13;;;;;;;9.45;6.57;;;;;;;21.49;44.91;100372.03;4140467;28;20109;-61
2023/06/12 02:19:16;;;;;;;9.23;5.78;;;;;;;21.48;44.96;100370.31;4128347;28;20054;-61
2023/06/12 02:21:19;;;;;;;8.75;5.90;;;;;;;21.49;45.25;100371.16;4140816;28;20402;-61
2023/06/12 02:23:24;;;;;;;8.98;5.70;;;;;;;21.48;45.31;100370.31;4128032;28;20046;-61
2023/06/12 02:25:26;;;;;;;9.60;5.72;;;;;;;;;;4144855;28;20044;-60
2023/06/12 02:27:30;;;;;;;7.40;5.82;;;;;;;21.40;45.77;100372.34;4128610;28;20043;-61
2023/06/12 02:29:33;;;;;;;8.70;5.32;;;;;;;21.40;46.03;100373.19;4128067;28;20479;-61
2023/06/12 02:31:37;;;;;;;9.98;5.78;;;;;;;21.31;46.27;100370.00;4140129;28;20044;-61
2023/06/12 02:33:40;;;;;;;8.60;6.10;;;;;;;21.28;46.17;100368.31;4120994;28;20073;-61
2023/06/12 02:35:43;;;;;;;8.30;6.30;;;;;;;21.20;46.40;100370.31;4141099;28;20578;-61
2023/06/12 02:37:47;;;;;;;10.32;6.00;;;;;;;21.12;46.60;100373.19;4126152;28;20586;-61
2023/06/12 02:39:52;;;;;;;8.55;6.22;;;;;;;21.07;46.49;100372.47;4127778;28;20069;-61
2023/06/12 02:41:55;;;;;;;12.13;6.88;;;;;;;21.05;46.37;100376.94;4118811;28;20129;-61
2023/06/12 02:43:58;;;;;;;9.20;6.32;;;;;;;21.00;46.44;100377.09;4111585;28;20069;-60
2023/06/12 02:46:01;;;;;;;9.07;6.78;;;;;;;20.96;46.47;100377.25;4147273;28;20549;-61
2023/06/12 02:48:06;;;;;;;9.35;6.50;;;;;;;20.97;46.54;100371.03;4113844;28;20138;-61
2023/06/12 02:50:13;;;;;;;10.00;5.70;;;;;;;20.97;46.20;100373.66;4131223;28;20062;-61
2023/06/12 02:52:24;;;;;;;10.38;5.90;;;;;;;20.96;45.83;100377.25;4139810;28;20494;-60
2023/06/12 02:54:28;;;;;;;8.88;5.78;;;;;;;20.96;46.33;100378.09;4147193;28;20125;-60
2023/06/12 02:56:37;;;;;;;8.27;5.70;;;;;;;21.00;46.06;100376.25;4147369;28;20046;-61
2023/06/12 02:58:41;;;;;;;8.32;6.05;;;;;;;20.97;46.18;100378.94;4146001;28;20038;-61
2023/06/12 03:00:46;;;;;;;10.05;6.35;;;;;;;20.94;46.35;100374.66;4147390;28;20570;-61
2023/06/12 03:02:49;;;;;;;8.43;6.22;;;;;;;20.81;46.73;100379.44;4147838;28;20061;-60
2023/06/12 03:04:53;;;;;;;11.13;6.63;;;;;;;20.78;46.69;100381.28;4131288;28;20534;-61
2023/06/12 03:07:02;;;;;;;9.43;6.10;;;;;;;20.73;47.04;100384.06;4131124;28;20518;-61
2023/06/12 03:09:08;;;;;;;8.85;5.75;;;;;;;20.70;47.36;100385.00;4130425;28;20046;-60
2023/06/12 03:11:11;;;;;;;11.00;6.93;;;;;;;20.68;47.06;100388.63;4146015;28;20042;-60
2023/06/12 03:13:15;;;;;;;9.35;6.13;;;;;;;20.64;47.08;100387.78;4130992;28;20038;-61
2023/06/12 03:15:19;;;;;;;11.48;6.70;;;;;;;20.65;47.08;100383.41;4124452;28;20046;-61
2023/06/12 03:17:22;;;;;;;8.55;6.15;;;;;;;20.63;46.83;100388.69;4143241;28;20038;-61
2023/06/12 03:19:26;;;;;;;9.27;6.30;;;;;;;20.61;46.92;100389.66;4140411;28;20054;-61
2023/06/12 03:21:29;;;;;;;8.55;6.13;;;;;;;20.59;47.23;100389.72;4113802;28;20081;-61
2023/06/12 03:23:32;;;;;;;12.68;6.97;;;;;;;20.58;47.73;100391.47;4145997;28;20125;-60
2023/06/12 03:25:35;;;;;;;10.30;6.00;;;;;;;20.56;48.26;100398.59;4130459;28;20038;-60
2023/06/12 03:27:38;;;;;;;8.90;6.10;;;;;;;20.51;48.38;100397.84;4148584;28;20463;-60
2023/06/12 03:29:44;;;;;;;9.70;6.18;;;;;;;20.51;48.04;100396.97;4125628;28;20047;-61
2023/06/12 03:31:47;;;;;;;9.02;6.32;;;;;;;20.42;48.09;100400.75;4114323;28;20051;-61
2023/06/12 03:33:50;;;;;;;8.68;5.90;;;;;;;20.37;48.17;100394.72;4130063;28;20041;-60
2023/06/12 03:35:53;;;;;;;12.45;7.00;;;;;;;20.36;48.02;100401.78;4130583;28;20122;-60
2023/06/12 03:37:57;;;;;;;8.68;6.32;;;;;;;20.36;47.65;100400.91;4131196;28;20058;-60
2023/06/12 03:39:59;;;;;;;8.02;5.68;;;;;;;20.37;47.65;100405.28;4130773;28;20053;-61
2023/06/12 03:42:04;;;;;;;9.13;6.72;;;;;;;20.31;47.74;100406.34;4129896;28;20040;-61
2023/06/12 03:44:15;;;;;;;8.57;6.63;;;;;;;20.25;47.32;100409.09;4130074;28;21023;-61
2023/06/12 03:46:19;;;;;;;11.02;6.60;;;;;;;20.31;47.55;100410.72;4130213;28;20129;-61
2023/06/12 03:48:22;;;;;;;9.27;6.43;;;;;;;20.33;47.43;100415.06;4145716;28;20571;-60
2023/06/12 03:50:25;;;;;;;11.52;6.75;;;;;;;20.37;47.58;100415.81;4145230;28;20037;-60
2023/06/12 03:52:28;;;;;;;10.07;6.20;;;;;;;20.39;48.16;100420.16;4143071;28;20038;-61
2023/06/12 03:54:31;;;;;;;10.30;6.53;;;;;;;20.44;48.02;100422.69;4130008;28;20042;-60
2023/06/12 03:56:34;;;;;;;8.30;6.22;;;;;;;20.43;48.46;100420.09;4144981;28;20480;-61
2023/06/12 03:58:37;;;;;;;11.35;6.07;;;;;;;20.44;48.64;100427.09;4129489;28;20542;-60
2023/06/12 04:00:40;;;;;;;10.63;6.75;;;;;;;20.43;48.63;100433.28;4130181;28;20042;-61
2023/06/12 04:02:44;;;;;;;8.57;6.18;;;;;;;20.40;48.26;100434.25;4130108;28;20515;-60
2023/06/12 04:04:51;;;;;;;10.00;7.13;;;;;;;20.32;48.76;100439.72;4129691;28;20089;-61
2023/06/12 04:06:55;;;;;;;9.95;6.68;;;;;;;20.29;48.88;100431.03;4113719;28;20039;-61
2023/06/12 04:08:59;;;;;;;9.82;7.00;;;;;;;20.33;48.82;100440.59;4130561;28;20045;-60
2023/06/12 04:11:02;;;;;;;;;;;;;;;20.22;49.05;100440.88;4114553;28;20047;-61
2023/06/12 04:13:06;;;;;;;10.40;6.35;;;;;;;20.29;48.98;100439.81;4129522;28;20311;-61
2023/06/12 04:15:10;;;;;;;9.85;6.22;;;;;;;20.34;48.98;100444.97;4127770;28;20112;-61
2023/06/12 04:17:13;;;;;;;9.32;6.47;;;;;;;20.38;48.79;100447.50;4125675;28;20038;-61
2023/06/12 04:19:17;;;;;;;9.65;6.03;;;;;;;20.41;49.14;100454.44;4139514;28;20146;-60
2023/06/12 04:21:21;;;;;;;11.68;5.93;;;;;;;20.41;49.19;100454.44;4128972;28;20046;-61
2023/06/12 04:23:29;;;;;;;8.35;6.22;;;;;;;20.46;48.76;100455.22;4145792;28;20430;-61
2023/06/12 04:25:32;;;;;;;13.63;6.90;;;;;;;20.50;48.99;100456.88;4130251;28;20038;-60
2023/06/12 04:27:36;;;;;;;7.75;6.15;;;;;;;20.60;48.69;100453.97;4142891;28;20124;-61
2023/06/12 04:29:42;;;;;;;14.40;6.40;;;;;;;20.69;48.72;100456.38;4144539;28;20407;-60
2023/06/12 04:31:49;;;;;;;16.13;6.75;;;;;;;20.77;48.81;100457.03;4129835;28;20501;-61
2023/06/12 04:33:54;;;;;;;12.38;6.82;;;;;;;20.80;48.94;100456.94;4129395;28;20034;-61
2023/06/12 04:36:00;;;;;;;9.35;6.05;;;;;;;20.86;48.82;100454.13;4127889;28;20034;-60
2023/06/12 04:38:05;;;;;;;11.98;6.82;;;;;;;20.95;47.89;100457.41;4128135;28;20034;-61
2023/06/12 04:40:08;;;;;;;;;;;;;;;20.92;47.97;100459.25;4143896;28;20117;-61
2023/06/12 04:42:16;;;;;;;14.45;7.28;;;;;;;21.00;47.68;100456.38;4128187;28;19922;-60
2023/06/12 04:44:21;;;;;;;11.35;7.28;;;;;;;21.15;47.59;100463.00;4126255;28;20050;-61
2023/06/12 04:46:24;;;;;;;10.23;6.82;;;;;;;21.17;47.52;100447.94;4122722;28;20054;-60
2023/06/12 04:48:27;;;;;;;10.70;6.88;;;;;;;21.22;47.72;100459.25;4127766;28;20038;-61
2023/06/12 04:50:31;;;;;;;9.20;5.43;;;;;;;21.43;52.38;100454.22;4128653;28;20038;-65
2023/06/12 04:52:37;;;;;;;11.20;7.28;;;;;;;21.76;48.81;100457.63;4128296;28;20062;-65
2023/06/12 04:54:44;;;;;;;9.00;6.05;;;;;;;21.88;47.87;100459.00;4142470;28;20038;-65
2023/06/12 04:56:48;;;;;;;10.65;6.47;;;;;;;22.04;48.43;100463.78;4128265;28;20034;-66
2023/06/12 04:58:51;;;;;;;15.13;6.13;;;;;;;22.19;48.06;100454.47;4144854;23;20046;-61
2023/06/12 05:00:55;;;;;;;14.10;8.73;;;;;;;22.36;46.20;100448.63;4112278;28;20468;-62
2023/06/12 05:03:00;;;;;;;9.48;6.57;;;;;;;22.33;46.23;100448.69;4121862;28;20035;-62
2023/06/12 05:05:04;;;;;;;11.93;6.25;;;;;;;22.37;45.81;100447.69;4125421;28;20439;-62
2023/06/12 05:07:13;;;;;;;9.63;6.07;;;;;;;22.39;46.23;100457.31;4111399;28;20473;-62
2023/06/12 05:09:19;;;;;;;9.25;5.85;;;;;;;22.54;46.45;100457.69;4112750;28;20066;-61
2023/06/12 05:11:22;;;;;;;15.40;7.03;;;;;;;22.72;45.12;100456.16;4112896;28;20763;-62
2023/06/12 05:13:25;;;;;;;11.68;6.72;;;;;;;22.69;43.86;100456.28;4095624;28;20066;-62
2023/06/12 05:15:28;;;;;;;10.13;5.90;;;;;;;22.60;44.75;100445.06;4098131;28;20422;-62
2023/06/12 05:17:32;;;;;;;14.02;6.75;;;;;;;22.67;43.99;100458.97;4107159;28;20503;-60
2023/06/12 05:19:38;;;;;;;11.20;6.57;;;;;;;22.60;43.31;100458.31;4095423;28;20038;-61
2023/06/12 05:21:43;;;;;;;11.10;6.93;;;;;;;22.63;42.81;100457.34;4095632;29;20061;-61
2023/06/12 05:23:46;;;;;;;12.35;6.45;;;;;;;22.51;43.33;100458.66;4091063;29;20083;-61
2023/06/12 05:25:51;;;;;;;9.55;6.90;;;;;;;22.41;43.85;100451.97;4095918;29;20058;-61
2023/06/12 05:27:53;;;;;;;11.20;6.68;;;;;;;22.45;43.87;100453.59;4112888;28;20069;-60
2023/06/12 05:29:56;;;;;;;10.40;6.43;;;;;;;22.51;42.86;100452.50;4113939;28;20069;-61
2023/06/12 05:31:59;;;;;;;12.02;7.10;;;;;;;22.53;42.76;100451.53;4109162;28;20405;-61
2023/06/12 05:34:03;;;;;;;10.50;5.65;;;;;;;22.54;42.64;100453.25;4110125;28;20101;-61
2023/06/12 05:36:08;;;;;;;11.70;6.75;;;;;;;22.60;42.96;100453.03;4096793;29;20043;-61
2023/06/12 05:38:11;;;;;;;9.60;6.03;;;;;;;22.66;42.87;100452.81;4096309;28;20043;-61
2023/06/12 05:40:15;;;;;;;10.20;6.40;;;;;;;22.71;42.39;100454.44;4093521;29;20051;-60
2023/06/12 05:42:21;;;;;;;9.30;6.40;;;;;;;22.63;42.87;100455.59;4097268;29;20051;-60
2023/06/12 05:44:26;;;;;;;14.07;6.10;;;;;;;22.70;42.32;100458.00;4108374;28;20089;-60
2023/06/12 05:46:29;;;;;;;9.37;6.20;;;;;;;22.77;42.13;100456.88;4101608;28;20617;-60
2023/06/12 05:48:32;;;;;;;9.63;6.55;;;;;;;22.82;42.01;100457.53;4099324;28;20039;-60
2023/06/12 05:50:35;;;;;;;7.72;5.88;;;;;;;22.82;41.87;100457.53;4112780;28;20042;-60
2023/06/12 05:52:41;;;;;;;11.57;6.50;;;;;;;22.89;41.65;100453.75;4109467;28;20081;-60
2023/06/12 05:54:45;;;;;;;11.77;6.67;;;;;;;22.86;41.85;100459.16;4095913;29;20043;-60
2023/06/12 05:56:48;;;;;;;8.73;6.53;;;;;;;22.87;41.81;100467.97;4096253;29;20047;-60
2023/06/12 05:58:52;;;;;;;11.48;5.97;;;;;;;22.87;42.04;100452.97;4092392;29;20039;-60
2023/06/12 06:00:55;;;;;;;8.40;5.85;;;;;;;23.02;41.73;100464.78;4109692;28;20050;-60
2023/06/12 06:03:19;;;;;;;9.52;6.57;;;;;;;23.08;41.22;100461.03;4113416;28;20042;-60
2023/06/12 06:05:22;;;;;;;9.55;6.80;;;;;;;23.25;41.13;100460.44;4096451;29;20501;-60
2023/06/12 06:07:26;;;;;;;11.05;6.07;;;;;;;23.24;41.10;100453.38;4113101;28;20523;-60
2023/06/12 06:09:29;;;;;;;11.70;7.10;;;;;;;23.35;41.17;100451.19;4111183;28;20102;-60
2023/06/12 06:11:32;;;;;;;8.77;6.40;;;;;;;23.41;40.84;100455.34;4094004;29;20519;-60
2023/06/12 06:13:35;;;;;;;10.52;6.75;;;;;;;23.55;40.86;100452.16;4096618;29;20047;-60
2023/06/12 06:15:39;;;;;;;12.00;5.68;;;;;;;23.59;41.00;100459.94;4096176;29;20422;-60
2023/06/12 06:17:44;;;;;;;8.95;5.88;;;;;;;23.71;41.55;100458.59;4097162;28;20565;-60
2023/06/12 06:19:49;;;;;;;9.02;5.22;;;;;;;23.68;41.12;100451.63;4111504;28;20046;-60
2023/06/12 06:21:52;;;;;;;11.27;5.65;;;;;;;23.75;41.36;100456.69;4111719;28;20039;-60
2023/06/12 06:23:55;;;;;;;11.50;6.78;;;;;;;23.95;40.35;100456.75;4109493;28;20122;-60
2023/06/12 06:25:58;;;;;;;8.88;5.43;;;;;;;24.05;39.65;100452.78;4096133;29;20031;-59
2023/06/12 06:28:01;;;;;;;8.35;5.20;;;;;;;24.04;39.69;100456.38;4112234;28;20058;-59
2023/06/12 06:30:05;;;;;;;9.88;5.57;;;;;;;24.17;39.60;100451.41;4096035;29;20037;-59
2023/06/12 06:32:09;;;;;;;6.43;4.82;;;;;;;24.19;39.54;100452.19;4094325;29;20098;-59
2023/06/12 06:34:13;;;;;;;6.45;4.40;;;;;;;23.90;40.26;100464.03;4111672;28;20089;-59
2023/06/12 06:36:16;;;;;;;10.30;5.22;;;;;;;23.93;40.13;100463.91;4094136;28;20115;-60
2023/06/12 06:38:22;;;;;;;11.02;5.32;;;;;;;24.01;40.34;100456.50;4095866;28;20035;-60
2023/06/12 06:40:26;;;;;;;8.13;4.78;;;;;;;24.12;40.01;100468.47;4111964;28;20053;-59
2023/06/12 06:42:30;;;;;;;6.68;5.57;;;;;;;24.20;40.81;100466.34;4108609;28;20039;-60
2023/06/12 06:44:39;;;;;;;9.85;5.63;;;;;;;24.38;40.48;100462.88;4096349;29;20570;-60
2023/06/12 06:46:44;;;;;;;12.23;4.90;;;;;;;24.49;40.15;100467.75;4111732;28;20042;-60
2023/06/12 06:48:49;;;;;;;7.40;5.53;;;;;;;24.55;39.85;100470.13;4096324;29;20089;-60
2023/06/12 06:50:53;;;;;;;12.68;5.68;;;;;;;24.57;39.71;100468.28;4096020;29;20039;-60
2023/06/12 06:52:56;;;;;;;7.95;5.35;;;;;;;24.73;39.65;100473.78;4112513;28;20061;-60
2023/06/12 06:54:59;;;;;;;7.22;5.07;;;;;;;24.76;40.16;100472.81;4112230;28;20580;-59
2023/06/12 06:57:03;;;;;;;;;;;;;;;24.78;39.87;100465.63;4111781;28;20134;-60
2023/06/12 06:59:06;;;;;;;9.18;5.88;;;;;;;24.88;39.58;100469.59;4111435;28;19965;-60
2023/06/12 07:01:11;;;;;;;6.07;4.45;;;;;;;24.99;39.16;100476.22;4091814;29;20038;-60
2023/06/12 07:03:15;;;;;;;7.78;4.88;;;;;;;24.95;39.70;100470.16;4111370;28;20051;-60
2023/06/12 07:05:21;;;;;;;7.93;4.25;;;;;;;25.07;39.71;100474.06;4108498;28;20492;-60
2023/06/12 07:07:24;;;;;;;13.00;5.70;;;;;;;25.18;39.51;100471.78;4112261;28;20109;-60
2023/06/12 07:09:27;;;;;;;9.75;5.65;;;;;;;25.35;38.76;100468.38;4111013;28;20086;-60
2023/06/12 07:11:30;;;;;;;6.72;4.95;;;;;;;25.36;38.71;100470.06;4094015;29;20126;-60
2023/06/12 07:13:33;;;;;;;7.28;5.30;;;;;;;25.48;37.93;100473.09;4095732;29;20054;-61
2023/06/12 07:15:36;;;;;;;8.48;5.47;;;;;;;25.42;38.73;100475.13;4095933;29;20043;-61
2023/06/12 07:17:40;;;;;;;6.22;4.60;;;;;;;25.55;37.57;100463.88;4095474;28;20075;-61
2023/06/12 07:19:43;;;;;;;7.82;4.72;;;;;;;25.44;38.62;100462.59;4095257;28;20035;-60
2023/06/12 07:21:48;;;;;;;5.35;4.70;;;;;;;25.51;38.74;100471.16;4109911;28;20579;-60
2023/06/12 07:23:52;;;;;;;9.32;4.13;;;;;;;25.54;39.08;100459.47;4107835;28;20505;-60
2023/06/12 07:25:55;;;;;;;;;;;;;;;25.58;38.87;100467.28;4111240;28;20113;-61
2023/06/12 07:27:58;;;;;;;5.97;4.30;;;;;;;25.67;38.92;100465.97;4112184;28;19922;-61
2023/06/12 07:30:01;;;;;;;8.00;4.75;;;;;;;25.72;38.72;100465.72;4094862;29;20863;-61
2023/06/12 07:32:05;;;;;;;8.48;5.30;;;;;;;25.83;38.53;100467.84;4085469;29;20047;-60
2023/06/12 07:34:09;;;;;;;9.02;4.20;;;;;;;25.84;38.50;100464.25;4098192;29;20070;-61
2023/06/12 07:36:11;;;;;;;7.47;3.85;;;;;;;25.85;38.47;100461.50;4114365;28;20408;-60
2023/06/12 07:38:16;;;;;;;7.35;4.20;;;;;;;25.90;38.20;100466.59;4114799;28;20066;-60
2023/06/12 07:40:18;;;;;;;;;;;;;;;26.03;38.38;100470.41;4116172;28;20046;-60
2023/06/12 07:42:21;;;;;;;9.13;4.85;;;;;;;26.09;37.59;100470.13;4114184;28;19938;-60
2023/06/12 07:44:25;;;;;;;9.97;4.87;;;;;;;26.13;37.09;100462.81;4112196;28;20046;-60
2023/06/12 07:46:29;;;;;;;6.72;4.22;;;;;;;26.08;37.29;100468.38;4098220;29;20307;-61
2023/06/12 07:48:32;;;;;;;6.53;4.53;;;;;;;26.11;37.78;100465.56;4109328;28;20046;-61
2023/06/12 07:50:37;;;;;;;7.50;4.35;;;;;;;26.23;37.48;100471.22;4098113;29;20070;-60
2023/06/12 07:52:40;;;;;;;9.55;5.38;;;;;;;26.51;36.36;100465.31;4113508;28;20034;-60
2023/06/12 07:54:45;;;;;;;6.68;4.57;;;;;;;26.39;37.08;100477.47;4110318;28;20038;-60
2023/06/12 07:56:50;;;;;;;7.85;4.55;;;;;;;26.42;36.11;100461.31;4112132;28;20046;-60
2023/06/12 07:58:54;;;;;;;9.13;4.30;;;;;;;26.30;36.75;100468.16;4095786;29;20031;-60
2023/06/12 08:00:56;;;;;;;7.07;4.50;;;;;;;26.46;36.76;100462.03;4098646;29;20665;-61
2023/06/12 08:03:02;;;;;;;6.20;4.80;;;;;;;26.51;36.93;100465.31;4114407;28;20089;-60
2023/06/12 08:05:25;;;;;;;9.27;5.10;;;;;;;26.50;36.99;100465.41;4107980;28;20051;-61
2023/06/12 08:07:33;;;;;;;9.25;5.45;;;;;;;26.62;36.08;100462.06;4113602;28;20043;-61
2023/06/12 08:09:38;;;;;;;7.30;4.95;;;;;;;26.75;35.61;100465.88;4114607;28;20062;-61
2023/06/12 08:11:42;;;;;;;7.95;4.97;;;;;;;26.57;36.23;100464.13;4113715;28;20043;-61
2023/06/12 08:13:45;;;;;;;6.45;4.90;;;;;;;26.59;35.76;100459.56;4097108;29;20402;-61
2023/06/12 08:15:49;;;;;;;7.70;4.85;;;;;;;26.60;36.54;100458.63;4097807;29;20067;-61
2023/06/12 08:17:52;;;;;;;7.50;5.25;;;;;;;26.70;35.49;100454.56;4114961;28;20039;-61
2023/06/12 08:19:54;;;;;;;9.13;5.20;;;;;;;26.61;35.83;100463.88;4114232;28;20465;-62
2023/06/12 08:21:57;;;;;;;10.77;5.75;;;;;;;26.69;36.21;100446.66;4111474;28;20409;-61
2023/06/12 08:24:00;;;;;;;6.13;4.88;;;;;;;26.78;35.70;100457.69;4113451;28;20039;-61
2023/06/12 08:26:04;;;;;;;10.95;5.18;;;;;;;26.66;35.83;100452.97;4097660;28;20043;-61
2023/06/12 08:28:09;;;;;;;6.00;4.05;;;;;;;26.70;35.36;100446.56;4097588;29;20043;-61
2023/06/12 08:30:13;;;;;;;6.65;4.60;;;;;;;26.64;36.37;100449.53;4095008;29;20533;-60
2023/06/12 08:32:16;;;;;;;6.55;4.53;;;;;;;26.59;35.59;100447.13;4098183;29;20043;-60
2023/06/12 08:34:25;;;;;;;9.15;5.03;;;;;;;26.64;35.39;100449.53;4095198;28;20043;-61
2023/06/12 08:36:29;;;;;;;6.65;4.60;;;;;;;26.88;35.10;100441.19;4097741;28;20039;-60
2023/06/12 08:38:32;;;;;;;9.00;4.80;;;;;;;26.84;35.18;100443.16;4112985;28;20050;-61
2023/06/12 08:40:36;;;;;;;10.02;4.93;;;;;;;26.97;34.95;100446.00;4097393;29;20555;-61
2023/06/12 08:42:43;;;;;;;11.27;5.30;;;;;;;27.05;35.02;100435.78;4094426;28;20559;-60
2023/06/12 08:44:48;;;;;;;8.45;4.70;;;;;;;26.91;35.14;100435.69;4094560;28;20122;-61
2023/06/12 08:46:56;;;;;;;6.32;4.60;;;;;;;27.03;34.63;100434.13;4112031;28;20062;-61
2023/06/12 08:49:00;;;;;;;13.13;5.32;;;;;;;27.07;35.28;100439.25;4097334;28;20042;-61
2023/06/12 08:51:06;;;;;;;8.05;4.75;;;;;;;27.07;35.65;100439.25;4113162;28;20034;-61
2023/06/12 08:53:09;;;;;;;5.95;4.72;;;;;;;27.13;35.05;100436.25;4113046;28;20196;-60
2023/06/12 08:55:14;;;;;;;6.30;4.75;;;;;;;26.78;35.70;100433.69;4110329;28;20041;-61
2023/06/12 08:57:17;;;;;;;7.25;4.05;;;;;;;26.45;36.22;100426.50;4098152;28;20047;-60
2023/06/12 08:59:21;;;;;;;7.95;4.15;;;;;;;26.47;36.19;100421.09;4114774;28;20057;-61
2023/06/12 09:01:28;;;;;;;9.45;4.57;;;;;;;26.36;36.26;100428.81;4113657;28;20035;-61
2023/06/12 09:03:33;;;;;;;11.63;4.80;;;;;;;26.23;36.53;100428.59;4114961;28;20051;-61
2023/06/12 09:05:37;;;;;;;7.05;4.55;;;;;;;26.10;36.93;100421.19;4113556;28;20039;-61
2023/06/12 09:07:44;;;;;;;5.10;4.10;;;;;;;26.14;37.08;100427.25;4112849;28;20453;-61
2023/06/12 09:09:47;;;;;;;4.80;4.30;;;;;;;26.52;36.48;100423.50;4110745;28;20046;-61
2023/06/12 09:11:50;;;;;;;6.68;4.43;;;;;;;26.91;36.47;100425.88;4109741;28;20085;-61
2023/06/12 09:13:53;;;;;;;8.20;4.43;;;;;;;27.18;36.60;100423.47;4112037;28;20059;-61
2023/06/12 09:15:56;;;;;;;5.55;4.45;;;;;;;27.32;36.76;100422.72;4095489;29;20039;-61
2023/06/12 09:18:00;;;;;;;11.63;5.20;;;;;;;27.30;36.42;100429.94;4112350;28;20133;-61
2023/06/12 09:20:05;;;;;;;5.40;4.43;;;;;;;27.48;35.73;100422.75;4113413;28;20035;-61
2023/06/12 09:22:08;;;;;;;7.07;5.13;;;;;;;27.78;35.28;100429.06;4113272;28;20131;-61
2023/06/12 09:24:10;;;;;;;5.80;4.55;;;;;;;27.86;33.47;100419.66;4094696;29;20047;-61
2023/06/12 09:26:15;;;;;;;8.60;4.60;;;;;;;27.87;32.78;100420.50;4083752;29;20053;-60
2023/06/12 09:28:23;;;;;;;6.07;4.32;;;;;;;27.93;32.47;100413.94;4097177;29;20532;-60
2023/06/12 09:30:26;;;;;;;8.57;4.90;;;;;;;27.89;32.90;100409.72;4108977;28;20069;-61
2023/06/12 09:32:30;;;;;;;7.93;4.50;;;;;;;27.91;32.16;100407.84;4114431;28;20038;-60
2023/06/12 09:34:35;;;;;;;7.72;4.88;;;;;;;27.99;33.04;100413.59;4110074;28;20469;-60
2023/06/12 09:36:39;;;;;;;5.80;4.43;;;;;;;28.04;31.99;100406.19;4113713;28;20047;-61
2023/06/12 09:38:41;;;;;;;7.35;4.80;;;;;;;27.85;32.06;100407.22;4111567;28;20524;-61